createdAt,value
2018-07-20T00:02:51.439Z,48.50
2018-07-20T00:07:54.730Z,48.80
2018-07-20T00:12:57.979Z,48.70
2018-07-20T00:18:01.270Z,48.00
2018-07-20T00:23:05.439Z,48.20
2018-07-20T00:28:08.743Z,48.80
2018-07-20T00:33:12.013Z,48.60
2018-07-20T00:38:15.302Z,48.20
2018-07-20T00:43:18.590Z,48.40
2018-07-20T00:48:21.834Z,48.20
2018-07-20T00:53:25.163Z,48.50
2018-07-20T00:58:28.451Z,48.80
2018-07-20T01:03:31.705Z,48.80
2018-07-20T01:08:35.146Z,49.00
2018-07-20T01:13:38.609Z,48.80
2018-07-20T01:18:41.879Z,48.90
2018-07-20T01:23:45.183Z,48.70
2018-07-20T01:28:48.472Z,49.60
2018-07-20T01:33:51.746Z,49.80
2018-07-20T01:38:55.035Z,50.40
2018-07-20T01:43:58.330Z,50.80
2018-07-20T01:49:01.590Z,50.70
2018-07-20T01:54:04.950Z,50.70
2018-07-20T01:59:08.230Z,51.00
2018-07-20T02:04:11.482Z,51.40
2018-07-20T02:09:14.741Z,51.20
2018-07-20T02:14:18.214Z,51.20
2018-07-20T02:19:22.064Z,50.70
2018-07-20T02:24:25.334Z,51.50
2018-07-20T02:29:28.610Z,52.00
2018-07-20T02:34:31.888Z,51.60
2018-07-20T02:39:35.257Z,50.90
2018-07-20T02:44:38.561Z,50.90
2018-07-20T02:49:41.859Z,51.90
2018-07-20T02:54:45.120Z,52.30
2018-07-20T02:59:48.394Z,51.60
2018-07-20T03:04:51.653Z,50.80
2018-07-20T03:10:01.383Z,50.40
2018-07-20T03:15:04.840Z,51.10
2018-07-20T03:20:08.083Z,51.00
2018-07-20T03:25:11.387Z,51.10
2018-07-20T03:30:14.646Z,51.80
2018-07-20T03:35:17.882Z,53.30
2018-07-20T03:40:21.598Z,52.10
2018-07-20T03:45:24.850Z,53.00
2018-07-20T03:50:28.112Z,53.40
2018-07-20T03:55:31.678Z,53.60
2018-07-20T04:00:34.987Z,54.40
2018-07-20T04:05:38.262Z,54.50
2018-07-20T04:10:41.551Z,55.20
2018-07-20T04:15:45.054Z,54.40
2018-07-20T04:20:48.422Z,54.70
2018-07-20T04:25:51.799Z,55.00
2018-07-20T04:30:55.036Z,55.30
2018-07-20T04:35:58.276Z,55.70
2018-07-20T04:41:01.579Z,55.70
2018-07-20T04:46:04.836Z,55.80
2018-07-20T04:51:08.093Z,55.20
2018-07-20T04:56:11.458Z,54.50
2018-07-20T05:01:14.764Z,54.50
2018-07-20T05:06:18.119Z,53.60
2018-07-20T05:11:21.707Z,52.60
2018-07-20T05:16:24.974Z,52.70
2018-07-20T05:21:28.316Z,51.60
2018-07-20T05:26:31.666Z,50.70
2018-07-20T05:31:35.003Z,49.70
2018-07-20T05:36:38.250Z,50.30
2018-07-20T05:41:41.588Z,49.60
2018-07-20T05:46:44.844Z,49.00
2018-07-20T05:51:48.150Z,49.70
2018-07-20T05:56:51.594Z,48.90
2018-07-20T06:01:54.888Z,49.20
2018-07-20T06:06:58.206Z,50.30
2018-07-20T06:12:01.567Z,50.90
2018-07-20T06:17:05.014Z,52.50
2018-07-20T06:22:08.371Z,54.20
2018-07-20T06:27:11.704Z,52.60
2018-07-20T06:32:14.929Z,52.10
2018-07-20T06:37:18.180Z,52.50
2018-07-20T06:42:21.473Z,50.60
2018-07-20T06:47:24.755Z,50.80
2018-07-20T06:52:28.060Z,51.00
2018-07-20T06:57:31.981Z,48.90
2018-07-20T07:02:35.540Z,48.70
2018-07-20T07:07:38.817Z,48.70
2018-07-20T07:12:42.102Z,48.80
2018-07-20T07:17:45.521Z,48.10
2018-07-20T07:22:48.788Z,49.60
2018-07-20T07:27:52.325Z,47.40
2018-07-20T07:32:55.771Z,50.00
2018-07-20T07:37:59.022Z,46.40
2018-07-20T07:43:02.265Z,46.40
2018-07-20T07:48:05.532Z,44.70
2018-07-20T07:53:08.831Z,47.00
2018-07-20T07:58:12.210Z,46.40
2018-07-20T08:03:15.538Z,45.00
2018-07-20T08:08:18.693Z,45.60
2018-07-20T08:13:21.942Z,46.90
2018-07-20T08:18:25.222Z,45.10
2018-07-20T08:23:28.479Z,44.50
2018-07-20T08:28:31.750Z,44.20
2018-07-20T08:33:34.995Z,44.20
2018-07-20T08:38:38.343Z,43.00
2018-07-20T08:43:41.844Z,42.50
2018-07-20T08:48:45.186Z,42.40
2018-07-20T08:53:48.531Z,42.50
2018-07-20T08:58:51.833Z,43.60
2018-07-20T09:03:55.110Z,42.30
2018-07-20T09:08:58.362Z,44.30
2018-07-20T09:14:01.631Z,44.50
2018-07-20T09:19:05.006Z,43.40
2018-07-20T09:24:08.258Z,41.70
2018-07-20T09:29:11.689Z,42.00
2018-07-20T09:34:15.950Z,42.60
2018-07-20T09:39:19.219Z,42.00
2018-07-20T09:44:22.822Z,42.30
2018-07-20T09:49:26.051Z,40.90
2018-07-20T09:54:29.306Z,40.00
2018-07-20T09:59:33.072Z,39.60
2018-07-20T10:04:36.291Z,39.20
2018-07-20T10:09:39.551Z,40.20
2018-07-20T10:14:42.817Z,40.30
2018-07-20T10:19:46.082Z,42.10
2018-07-20T10:24:49.355Z,41.10
2018-07-20T10:29:52.638Z,41.60
2018-07-20T10:34:55.913Z,40.60
2018-07-20T10:39:59.224Z,39.10
2018-07-20T10:45:02.510Z,41.40
2018-07-20T10:50:06.112Z,41.20
2018-07-20T10:55:09.447Z,40.60
2018-07-20T11:00:12.926Z,41.00
2018-07-20T11:05:16.230Z,40.10
2018-07-20T11:10:19.528Z,41.10
2018-07-20T11:15:22.884Z,40.20
2018-07-20T11:20:26.301Z,36.60
2018-07-20T11:25:29.543Z,36.50
2018-07-20T11:30:32.855Z,35.00
2018-07-20T11:35:36.141Z,35.80
2018-07-20T11:40:39.423Z,35.50
2018-07-20T11:45:42.806Z,35.90
2018-07-20T11:50:46.279Z,35.40
2018-07-20T11:55:49.549Z,33.70
2018-07-20T12:00:52.850Z,35.90
2018-07-20T12:05:56.105Z,35.20
2018-07-20T12:10:59.411Z,36.30
2018-07-20T12:16:05.306Z,35.70
2018-07-20T12:21:08.586Z,35.90
2018-07-20T12:26:11.872Z,37.50
2018-07-20T12:31:15.187Z,37.90
2018-07-20T12:36:18.457Z,37.40
2018-07-20T12:41:21.689Z,36.00
2018-07-20T12:46:24.937Z,36.10
2018-07-20T12:51:28.182Z,37.80
2018-07-20T12:56:31.415Z,35.20
2018-07-20T13:01:34.663Z,34.20
2018-07-20T13:06:37.906Z,32.90
2018-07-20T13:11:41.795Z,34.00
2018-07-20T13:16:45.051Z,34.70
2018-07-20T13:21:48.342Z,35.00
2018-07-20T13:26:51.582Z,34.50
2018-07-20T13:31:54.860Z,34.30
2018-07-20T13:36:58.159Z,33.10
2018-07-20T13:42:01.420Z,33.50
2018-07-20T13:47:04.683Z,32.30
2018-07-20T13:52:07.927Z,34.30
2018-07-20T13:57:11.166Z,33.60
2018-07-20T14:02:14.421Z,30.30
2018-07-20T14:07:17.746Z,30.70
2018-07-20T14:12:20.984Z,31.00
2018-07-20T14:17:25.163Z,32.40
2018-07-20T14:22:28.535Z,33.90
2018-07-20T14:27:31.802Z,33.10
2018-07-20T14:32:35.054Z,32.60
2018-07-20T14:37:38.323Z,32.40
2018-07-20T14:42:41.680Z,31.40
2018-07-20T14:47:45.027Z,32.10
2018-07-20T14:52:48.258Z,31.30
2018-07-20T14:57:51.560Z,31.70
2018-07-20T15:02:54.795Z,32.00
2018-07-20T15:07:58.067Z,32.00
2018-07-20T15:13:01.283Z,32.00
2018-07-20T15:18:04.766Z,31.10
2018-07-20T15:23:08.083Z,31.50
2018-07-20T15:28:11.337Z,32.00
2018-07-20T15:33:14.721Z,31.80
2018-07-20T15:38:17.961Z,31.70
2018-07-20T15:43:21.310Z,29.80
2018-07-20T15:48:24.559Z,30.30
2018-07-20T15:53:42.863Z,30.70
2018-07-20T15:58:31.071Z,30.40
2018-07-20T16:03:34.353Z,31.20
2018-07-20T16:08:37.790Z,29.90
2018-07-20T16:13:41.057Z,30.90
2018-07-20T16:18:46.239Z,32.00
2018-07-20T16:23:49.510Z,31.70
2018-07-20T16:28:52.889Z,31.00
2018-07-20T16:33:56.147Z,31.50
2018-07-20T16:38:59.478Z,34.20
2018-07-20T16:44:02.914Z,37.00
2018-07-20T16:49:06.500Z,38.60
2018-07-20T16:54:09.835Z,40.40
2018-07-20T16:59:13.256Z,48.80
2018-07-20T17:04:16.454Z,45.50
2018-07-20T17:09:19.714Z,47.10
2018-07-20T17:14:23.043Z,50.50
2018-07-20T17:19:26.362Z,53.20
2018-07-20T17:24:29.686Z,50.70
2018-07-20T17:29:32.931Z,51.60
2018-07-20T17:34:36.311Z,49.80
2018-07-20T17:39:39.546Z,50.40
2018-07-20T17:44:42.807Z,49.90
2018-07-20T17:49:46.130Z,50.10
2018-07-20T17:54:49.408Z,49.60
2018-07-20T17:59:52.675Z,52.00
2018-07-20T18:04:55.926Z,50.60
2018-07-20T18:15:02.369Z,47.70
2018-07-20T18:20:05.757Z,48.70
2018-07-20T18:25:09.111Z,47.80
2018-07-20T18:30:12.430Z,47.40
2018-07-20T18:35:15.678Z,50.00
2018-07-20T18:40:19.042Z,49.60
2018-07-20T18:45:22.348Z,50.20
2018-07-20T18:50:25.604Z,50.90
2018-07-20T18:55:28.908Z,51.70
2018-07-20T19:00:32.157Z,49.90
2018-07-20T19:05:35.995Z,48.10
2018-07-20T19:10:39.329Z,47.80
2018-07-20T19:15:42.628Z,46.40
2018-07-20T19:20:46.119Z,47.10
2018-07-20T19:25:50.396Z,47.70
2018-07-20T19:30:53.880Z,47.00
2018-07-20T19:35:57.971Z,46.90
2018-07-20T19:41:01.479Z,47.20
2018-07-20T19:46:04.852Z,47.50
2018-07-20T19:51:08.205Z,47.30
2018-07-20T19:56:11.809Z,47.30
2018-07-20T20:01:15.215Z,47.10
2018-07-20T20:06:18.695Z,47.20
2018-07-20T20:11:21.949Z,47.30
2018-07-20T20:16:25.748Z,47.80
2018-07-20T20:21:29.257Z,46.80
2018-07-20T20:26:32.525Z,47.40
2018-07-20T20:31:35.795Z,47.20
2018-07-20T20:36:39.152Z,47.80
2018-07-20T20:41:42.399Z,47.80
2018-07-20T20:46:45.695Z,47.00
2018-07-20T20:51:49.155Z,47.50
2018-07-20T20:56:52.405Z,47.90
2018-07-20T21:01:55.674Z,47.80
2018-07-20T21:06:58.986Z,48.00
2018-07-20T21:17:05.319Z,48.40
2018-07-20T21:22:08.582Z,48.20
2018-07-20T21:27:11.891Z,48.80
2018-07-20T21:32:15.132Z,49.20
2018-07-20T21:37:18.772Z,49.20
2018-07-20T21:42:22.124Z,49.50
2018-07-20T21:47:25.370Z,49.20
2018-07-20T21:52:28.869Z,49.10
2018-07-20T21:57:32.276Z,48.60
2018-07-20T22:02:35.747Z,48.20
2018-07-20T22:07:39.016Z,48.30
2018-07-20T22:12:42.276Z,48.20
2018-07-20T22:17:45.518Z,48.60
2018-07-20T22:22:48.770Z,48.40
2018-07-20T22:27:52.052Z,48.00
2018-07-20T22:32:55.315Z,47.90
2018-07-20T22:37:58.667Z,47.50
2018-07-20T22:43:01.942Z,47.50
2018-07-20T22:53:08.268Z,47.60
2018-07-20T22:58:11.550Z,47.10
2018-07-20T23:03:14.970Z,47.60
2018-07-20T23:09:21.469Z,52.00
2018-07-20T23:14:24.723Z,48.80
2018-07-20T23:19:28.009Z,48.90
2018-07-20T23:24:31.259Z,48.40
2018-07-20T23:29:34.549Z,48.00
2018-07-20T23:34:37.794Z,48.10
2018-07-20T23:39:41.043Z,48.70
2018-07-20T23:44:44.429Z,49.30
2018-07-20T23:49:47.726Z,48.80
2018-07-20T23:59:54.078Z,49.20
